sensor_id;sensor_type;location;lat;lon;timestamp;P1;durP1;ratioP1;P2;durP2;ratioP2
70899;SDS011;67902;52.154;5.430;2024-03-08T00:00:16;30.10;;;10.40;;
70899;SDS011;67902;52.154;5.430;2024-03-08T00:02:45;33.28;;;11.00;;
70899;SDS011;67902;52.154;5.430;2024-03-08T00:05:12;32.58;;;11.23;;
70899;SDS011;67902;52.154;5.430;2024-03-08T00:07:40;32.35;;;11.27;;
70899;SDS011;67902;52.154;5.430;2024-03-08T00:10:08;32.03;;;11.52;;
70899;SDS011;67902;52.154;5.430;2024-03-08T00:12:40;28.25;;;10.35;;
70899;SDS011;67902;52.154;5.430;2024-03-08T00:15:11;30.17;;;10.23;;
70899;SDS011;67902;52.154;5.430;2024-03-08T00:17:45;30.75;;;10.48;;
70899;SDS011;67902;52.154;5.430;2024-03-08T00:20:12;32.67;;;11.13;;
70899;SDS011;67902;52.154;5.430;2024-03-08T00:22:40;29.38;;;10.93;;
70899;SDS011;67902;52.154;5.430;2024-03-08T00:25:07;25.67;;;10.15;;
70899;SDS011;67902;52.154;5.430;2024-03-08T00:27:38;27.92;;;10.30;;
70899;SDS011;67902;52.154;5.430;2024-03-08T00:30:05;33.40;;;11.75;;
70899;SDS011;67902;52.154;5.430;2024-03-08T00:32:32;31.80;;;10.50;;
70899;SDS011;67902;52.154;5.430;2024-03-08T00:34:59;28.33;;;10.77;;
70899;SDS011;67902;52.154;5.430;2024-03-08T00:37:26;31.48;;;11.30;;
70899;SDS011;67902;52.154;5.430;2024-03-08T00:39:52;27.23;;;9.93;;
70899;SDS011;67902;52.154;5.430;2024-03-08T00:42:19;35.92;;;11.38;;
70899;SDS011;67902;52.154;5.430;2024-03-08T00:44:46;27.40;;;11.43;;
70899;SDS011;67902;52.154;5.430;2024-03-08T00:47:14;30.65;;;11.13;;
70899;SDS011;67902;52.154;5.430;2024-03-08T00:49:41;33.70;;;11.15;;
70899;SDS011;67902;52.154;5.430;2024-03-08T00:52:08;32.88;;;10.50;;
70899;SDS011;67902;52.154;5.430;2024-03-08T00:54:35;33.28;;;11.05;;
70899;SDS011;67902;52.154;5.430;2024-03-08T00:57:04;35.08;;;12.35;;
70899;SDS011;67902;52.154;5.430;2024-03-08T00:59:33;30.73;;;10.65;;
70899;SDS011;67902;52.154;5.430;2024-03-08T01:02:00;31.25;;;12.05;;
70899;SDS011;67902;52.154;5.430;2024-03-08T01:04:27;28.38;;;11.25;;
70899;SDS011;67902;52.154;5.430;2024-03-08T01:06:58;34.03;;;10.80;;
70899;SDS011;67902;52.154;5.430;2024-03-08T01:09:25;29.30;;;11.10;;
70899;SDS011;67902;52.154;5.430;2024-03-08T01:14:23;29.02;;;10.80;;
70899;SDS011;67902;52.154;5.430;2024-03-08T01:16:50;36.13;;;10.60;;
70899;SDS011;67902;52.154;5.430;2024-03-08T01:19:17;41.97;;;11.48;;
70899;SDS011;67902;52.154;5.430;2024-03-08T01:21:44;26.17;;;9.00;;
70899;SDS011;67902;52.154;5.430;2024-03-08T01:24:10;28.95;;;11.85;;
70899;SDS011;67902;52.154;5.430;2024-03-08T01:26:37;33.03;;;11.02;;
70899;SDS011;67902;52.154;5.430;2024-03-08T01:29:04;29.02;;;10.45;;
70899;SDS011;67902;52.154;5.430;2024-03-08T01:31:30;17.92;;;7.18;;
70899;SDS011;67902;52.154;5.430;2024-03-08T01:34:00;32.28;;;10.55;;
70899;SDS011;67902;52.154;5.430;2024-03-08T01:36:27;27.77;;;10.55;;
70899;SDS011;67902;52.154;5.430;2024-03-08T01:38:53;31.73;;;10.90;;
70899;SDS011;67902;52.154;5.430;2024-03-08T01:41:20;32.28;;;11.13;;
70899;SDS011;67902;52.154;5.430;2024-03-08T01:43:46;31.23;;;11.50;;
70899;SDS011;67902;52.154;5.430;2024-03-08T01:46:17;33.95;;;11.48;;
70899;SDS011;67902;52.154;5.430;2024-03-08T01:48:45;31.65;;;10.98;;
70899;SDS011;67902;52.154;5.430;2024-03-08T01:51:12;30.40;;;11.13;;
70899;SDS011;67902;52.154;5.430;2024-03-08T01:53:41;33.35;;;11.10;;
70899;SDS011;67902;52.154;5.430;2024-03-08T01:56:12;29.55;;;10.32;;
70899;SDS011;67902;52.154;5.430;2024-03-08T01:58:40;28.55;;;10.13;;
70899;SDS011;67902;52.154;5.430;2024-03-08T02:01:11;32.42;;;11.27;;
70899;SDS011;67902;52.154;5.430;2024-03-08T02:03:41;29.15;;;10.35;;
70899;SDS011;67902;52.154;5.430;2024-03-08T02:06:13;28.40;;;10.95;;
70899;SDS011;67902;52.154;5.430;2024-03-08T02:08:42;25.98;;;10.55;;
70899;SDS011;67902;52.154;5.430;2024-03-08T02:11:13;28.00;;;10.82;;
70899;SDS011;67902;52.154;5.430;2024-03-08T02:13:41;29.52;;;10.02;;
70899;SDS011;67902;52.154;5.430;2024-03-08T02:16:07;33.03;;;11.55;;
70899;SDS011;67902;52.154;5.430;2024-03-08T02:18:35;32.63;;;10.90;;
70899;SDS011;67902;52.154;5.430;2024-03-08T02:21:02;30.63;;;11.23;;
70899;SDS011;67902;52.154;5.430;2024-03-08T02:23:30;32.97;;;10.93;;
70899;SDS011;67902;52.154;5.430;2024-03-08T02:25:58;37.15;;;11.30;;
70899;SDS011;67902;52.154;5.430;2024-03-08T02:28:25;27.75;;;10.50;;
70899;SDS011;67902;52.154;5.430;2024-03-08T02:30:52;33.72;;;11.60;;
70899;SDS011;67902;52.154;5.430;2024-03-08T02:33:25;28.77;;;10.45;;
70899;SDS011;67902;52.154;5.430;2024-03-08T02:35:53;30.67;;;10.52;;
70899;SDS011;67902;52.154;5.430;2024-03-08T02:38:21;34.08;;;11.40;;
70899;SDS011;67902;52.154;5.430;2024-03-08T02:40:50;30.83;;;10.60;;
70899;SDS011;67902;52.154;5.430;2024-03-08T02:43:19;29.35;;;10.95;;
70899;SDS011;67902;52.154;5.430;2024-03-08T02:45:48;37.17;;;11.25;;
70899;SDS011;67902;52.154;5.430;2024-03-08T02:48:16;28.45;;;11.00;;
70899;SDS011;67902;52.154;5.430;2024-03-08T02:50:43;26.50;;;9.88;;
70899;SDS011;67902;52.154;5.430;2024-03-08T02:53:11;32.08;;;11.88;;
70899;SDS011;67902;52.154;5.430;2024-03-08T02:55:39;28.83;;;11.45;;
70899;SDS011;67902;52.154;5.430;2024-03-08T02:58:08;25.40;;;10.93;;
70899;SDS011;67902;52.154;5.430;2024-03-08T03:00:37;32.72;;;12.35;;
70899;SDS011;67902;52.154;5.430;2024-03-08T03:03:07;33.10;;;11.05;;
70899;SDS011;67902;52.154;5.430;2024-03-08T03:05:34;27.88;;;10.35;;
70899;SDS011;67902;52.154;5.430;2024-03-08T03:08:01;28.73;;;10.65;;
70899;SDS011;67902;52.154;5.430;2024-03-08T03:10:30;30.45;;;11.57;;
70899;SDS011;67902;52.154;5.430;2024-03-08T03:12:57;29.83;;;11.15;;
70899;SDS011;67902;52.154;5.430;2024-03-08T03:15:24;28.70;;;11.43;;
70899;SDS011;67902;52.154;5.430;2024-03-08T03:17:53;26.58;;;10.70;;
70899;SDS011;67902;52.154;5.430;2024-03-08T03:20:20;30.77;;;12.00;;
70899;SDS011;67902;52.154;5.430;2024-03-08T03:22:53;33.33;;;11.48;;
70899;SDS011;67902;52.154;5.430;2024-03-08T03:25:20;28.65;;;10.90;;
70899;SDS011;67902;52.154;5.430;2024-03-08T03:27:52;30.58;;;13.38;;
70899;SDS011;67902;52.154;5.430;2024-03-08T03:30:19;25.05;;;9.00;;
70899;SDS011;67902;52.154;5.430;2024-03-08T03:32:48;29.30;;;11.68;;
70899;SDS011;67902;52.154;5.430;2024-03-08T03:35:16;35.30;;;12.20;;
70899;SDS011;67902;52.154;5.430;2024-03-08T03:37:43;24.60;;;9.45;;
70899;SDS011;67902;52.154;5.430;2024-03-08T03:40:30;37.55;;;11.57;;
70899;SDS011;67902;52.154;5.430;2024-03-08T03:42:57;27.70;;;10.63;;
70899;SDS011;67902;52.154;5.430;2024-03-08T03:45:24;23.25;;;9.45;;
70899;SDS011;67902;52.154;5.430;2024-03-08T03:47:51;31.80;;;11.75;;
70899;SDS011;67902;52.154;5.430;2024-03-08T03:50:18;26.38;;;10.98;;
70899;SDS011;67902;52.154;5.430;2024-03-08T03:52:48;27.77;;;10.07;;
70899;SDS011;67902;52.154;5.430;2024-03-08T03:55:14;25.00;;;8.82;;
70899;SDS011;67902;52.154;5.430;2024-03-08T03:57:41;27.33;;;10.80;;
70899;SDS011;67902;52.154;5.430;2024-03-08T04:02:40;24.75;;;9.77;;
70899;SDS011;67902;52.154;5.430;2024-03-08T04:05:07;31.48;;;11.00;;
70899;SDS011;67902;52.154;5.430;2024-03-08T04:07:36;25.98;;;9.27;;
70899;SDS011;67902;52.154;5.430;2024-03-08T04:10:03;24.02;;;10.75;;
70899;SDS011;67902;52.154;5.430;2024-03-08T04:12:35;25.45;;;9.90;;
70899;SDS011;67902;52.154;5.430;2024-03-08T04:15:02;21.98;;;8.80;;
70899;SDS011;67902;52.154;5.430;2024-03-08T04:17:28;24.42;;;10.77;;
70899;SDS011;67902;52.154;5.430;2024-03-08T04:19:55;29.10;;;9.35;;
70899;SDS011;67902;52.154;5.430;2024-03-08T04:22:22;26.30;;;9.93;;
70899;SDS011;67902;52.154;5.430;2024-03-08T04:24:48;20.33;;;8.38;;
70899;SDS011;67902;52.154;5.430;2024-03-08T04:27:15;24.63;;;10.30;;
70899;SDS011;67902;52.154;5.430;2024-03-08T04:29:42;26.95;;;9.55;;
70899;SDS011;67902;52.154;5.430;2024-03-08T04:32:09;26.02;;;10.55;;
70899;SDS011;67902;52.154;5.430;2024-03-08T04:34:36;21.35;;;8.88;;
70899;SDS011;67902;52.154;5.430;2024-03-08T04:37:02;24.45;;;9.40;;
70899;SDS011;67902;52.154;5.430;2024-03-08T04:39:31;28.48;;;10.93;;
70899;SDS011;67902;52.154;5.430;2024-03-08T04:41:58;27.88;;;10.63;;
70899;SDS011;67902;52.154;5.430;2024-03-08T04:44:31;26.92;;;11.02;;
70899;SDS011;67902;52.154;5.430;2024-03-08T04:49:26;26.30;;;10.10;;
70899;SDS011;67902;52.154;5.430;2024-03-08T04:51:54;27.70;;;9.88;;
70899;SDS011;67902;52.154;5.430;2024-03-08T04:54:21;32.85;;;11.40;;
70899;SDS011;67902;52.154;5.430;2024-03-08T04:56:47;26.67;;;9.95;;
70899;SDS011;67902;52.154;5.430;2024-03-08T04:59:14;27.40;;;10.68;;
70899;SDS011;67902;52.154;5.430;2024-03-08T05:01:40;22.70;;;9.18;;
70899;SDS011;67902;52.154;5.430;2024-03-08T05:04:07;27.70;;;11.18;;
70899;SDS011;67902;52.154;5.430;2024-03-08T05:06:35;26.98;;;9.43;;
70899;SDS011;67902;52.154;5.430;2024-03-08T05:09:02;24.67;;;10.60;;
70899;SDS011;67902;52.154;5.430;2024-03-08T05:11:40;27.63;;;10.27;;
70899;SDS011;67902;52.154;5.430;2024-03-08T05:14:07;27.13;;;11.18;;
70899;SDS011;67902;52.154;5.430;2024-03-08T05:16:34;27.75;;;11.40;;
70899;SDS011;67902;52.154;5.430;2024-03-08T05:19:02;30.95;;;11.63;;
70899;SDS011;67902;52.154;5.430;2024-03-08T05:21:29;22.17;;;8.85;;
70899;SDS011;67902;52.154;5.430;2024-03-08T05:23:55;25.52;;;10.52;;
70899;SDS011;67902;52.154;5.430;2024-03-08T05:26:22;24.35;;;9.85;;
70899;SDS011;67902;52.154;5.430;2024-03-08T05:28:48;32.38;;;11.13;;
70899;SDS011;67902;52.154;5.430;2024-03-08T05:31:19;25.73;;;10.02;;
70899;SDS011;67902;52.154;5.430;2024-03-08T05:33:49;33.28;;;11.45;;
70899;SDS011;67902;52.154;5.430;2024-03-08T05:36:16;27.02;;;11.13;;
70899;SDS011;67902;52.154;5.430;2024-03-08T05:38:43;26.98;;;10.55;;
70899;SDS011;67902;52.154;5.430;2024-03-08T05:41:10;31.60;;;11.48;;
70899;SDS011;67902;52.154;5.430;2024-03-08T05:43:38;27.17;;;9.98;;
70899;SDS011;67902;52.154;5.430;2024-03-08T05:46:06;22.27;;;8.40;;
70899;SDS011;67902;52.154;5.430;2024-03-08T05:48:33;23.17;;;8.30;;
70899;SDS011;67902;52.154;5.430;2024-03-08T05:51:00;30.52;;;12.45;;
70899;SDS011;67902;52.154;5.430;2024-03-08T05:53:26;25.50;;;10.75;;
70899;SDS011;67902;52.154;5.430;2024-03-08T05:55:53;28.52;;;11.95;;
70899;SDS011;67902;52.154;5.430;2024-03-08T05:58:20;27.92;;;9.05;;
70899;SDS011;67902;52.154;5.430;2024-03-08T06:00:46;26.52;;;10.27;;
70899;SDS011;67902;52.154;5.430;2024-03-08T06:03:18;28.42;;;11.40;;
70899;SDS011;67902;52.154;5.430;2024-03-08T06:05:48;32.55;;;12.23;;
70899;SDS011;67902;52.154;5.430;2024-03-08T06:08:15;22.23;;;9.05;;
70899;SDS011;67902;52.154;5.430;2024-03-08T06:10:42;25.65;;;10.65;;
70899;SDS011;67902;52.154;5.430;2024-03-08T06:13:09;27.70;;;11.38;;
70899;SDS011;67902;52.154;5.430;2024-03-08T06:15:38;29.38;;;11.07;;
70899;SDS011;67902;52.154;5.430;2024-03-08T06:18:05;32.45;;;11.95;;
70899;SDS011;67902;52.154;5.430;2024-03-08T06:20:32;22.70;;;9.95;;
70899;SDS011;67902;52.154;5.430;2024-03-08T06:22:59;25.45;;;11.30;;
70899;SDS011;67902;52.154;5.430;2024-03-08T06:25:26;22.25;;;9.02;;
70899;SDS011;67902;52.154;5.430;2024-03-08T06:27:52;24.65;;;11.02;;
70899;SDS011;67902;52.154;5.430;2024-03-08T06:30:19;28.25;;;10.07;;
70899;SDS011;67902;52.154;5.430;2024-03-08T06:32:47;29.13;;;10.82;;
70899;SDS011;67902;52.154;5.430;2024-03-08T06:35:14;32.15;;;11.05;;
70899;SDS011;67902;52.154;5.430;2024-03-08T06:37:42;24.70;;;9.85;;
70899;SDS011;67902;52.154;5.430;2024-03-08T06:40:10;23.33;;;9.82;;
70899;SDS011;67902;52.154;5.430;2024-03-08T06:42:40;24.05;;;10.02;;
70899;SDS011;67902;52.154;5.430;2024-03-08T06:45:07;38.25;;;8.88;;
70899;SDS011;67902;52.154;5.430;2024-03-08T06:47:36;28.65;;;11.40;;
70899;SDS011;67902;52.154;5.430;2024-03-08T06:50:03;31.08;;;12.18;;
70899;SDS011;67902;52.154;5.430;2024-03-08T06:52:30;26.70;;;10.95;;
70899;SDS011;67902;52.154;5.430;2024-03-08T06:54:57;33.92;;;12.57;;
70899;SDS011;67902;52.154;5.430;2024-03-08T06:57:24;28.58;;;10.50;;
70899;SDS011;67902;52.154;5.430;2024-03-08T06:59:50;27.20;;;10.50;;
70899;SDS011;67902;52.154;5.430;2024-03-08T07:04:45;32.83;;;12.63;;
70899;SDS011;67902;52.154;5.430;2024-03-08T07:07:11;35.85;;;12.60;;
70899;SDS011;67902;52.154;5.430;2024-03-08T07:09:38;27.17;;;10.77;;
70899;SDS011;67902;52.154;5.430;2024-03-08T07:12:04;25.52;;;10.75;;
70899;SDS011;67902;52.154;5.430;2024-03-08T07:14:31;26.02;;;11.05;;
70899;SDS011;67902;52.154;5.430;2024-03-08T07:16:58;18.98;;;8.48;;
70899;SDS011;67902;52.154;5.430;2024-03-08T07:19:24;30.17;;;10.93;;
70899;SDS011;67902;52.154;5.430;2024-03-08T07:21:51;30.23;;;14.20;;
70899;SDS011;67902;52.154;5.430;2024-03-08T07:24:17;26.23;;;10.75;;
70899;SDS011;67902;52.154;5.430;2024-03-08T07:26:44;28.00;;;10.32;;
70899;SDS011;67902;52.154;5.430;2024-03-08T07:29:10;17.80;;;8.45;;
70899;SDS011;67902;52.154;5.430;2024-03-08T07:31:37;30.77;;;12.35;;
70899;SDS011;67902;52.154;5.430;2024-03-08T07:34:03;27.40;;;10.40;;
70899;SDS011;67902;52.154;5.430;2024-03-08T07:36:33;31.48;;;10.48;;
70899;SDS011;67902;52.154;5.430;2024-03-08T07:39:04;30.90;;;11.55;;
70899;SDS011;67902;52.154;5.430;2024-03-08T07:41:38;30.90;;;12.98;;
70899;SDS011;67902;52.154;5.430;2024-03-08T07:44:06;29.10;;;11.55;;
70899;SDS011;67902;52.154;5.430;2024-03-08T07:46:33;28.60;;;11.32;;
70899;SDS011;67902;52.154;5.430;2024-03-08T07:49:00;28.92;;;12.50;;
70899;SDS011;67902;52.154;5.430;2024-03-08T07:51:27;31.23;;;12.43;;
70899;SDS011;67902;52.154;5.430;2024-03-08T07:53:54;25.80;;;11.32;;
70899;SDS011;67902;52.154;5.430;2024-03-08T07:56:26;26.60;;;10.77;;
70899;SDS011;67902;52.154;5.430;2024-03-08T07:58:52;26.05;;;10.98;;
70899;SDS011;67902;52.154;5.430;2024-03-08T08:01:19;30.48;;;13.70;;
70899;SDS011;67902;52.154;5.430;2024-03-08T08:03:46;25.38;;;10.68;;
70899;SDS011;67902;52.154;5.430;2024-03-08T08:08:42;23.92;;;9.95;;
70899;SDS011;67902;52.154;5.430;2024-03-08T08:11:09;32.03;;;13.52;;
70899;SDS011;67902;52.154;5.430;2024-03-08T08:13:35;30.55;;;14.10;;
70899;SDS011;67902;52.154;5.430;2024-03-08T08:16:03;28.48;;;13.50;;
70899;SDS011;67902;52.154;5.430;2024-03-08T08:18:31;27.08;;;12.45;;
70899;SDS011;67902;52.154;5.430;2024-03-08T08:21:00;27.00;;;12.07;;
70899;SDS011;67902;52.154;5.430;2024-03-08T08:23:26;31.95;;;14.45;;
70899;SDS011;67902;52.154;5.430;2024-03-08T08:25:53;28.88;;;13.70;;
70899;SDS011;67902;52.154;5.430;2024-03-08T08:28:19;31.70;;;14.75;;
70899;SDS011;67902;52.154;5.430;2024-03-08T08:30:47;30.83;;;12.80;;
70899;SDS011;67902;52.154;5.430;2024-03-08T08:33:14;29.67;;;14.60;;
70899;SDS011;67902;52.154;5.430;2024-03-08T08:35:41;31.20;;;14.27;;
70899;SDS011;67902;52.154;5.430;2024-03-08T08:38:08;26.98;;;11.85;;
70899;SDS011;67902;52.154;5.430;2024-03-08T08:40:35;35.30;;;15.00;;
70899;SDS011;67902;52.154;5.430;2024-03-08T08:43:04;31.08;;;14.07;;
70899;SDS011;67902;52.154;5.430;2024-03-08T08:45:31;31.80;;;14.80;;
70899;SDS011;67902;52.154;5.430;2024-03-08T08:47:57;33.83;;;15.23;;
70899;SDS011;67902;52.154;5.430;2024-03-08T08:50:26;31.33;;;15.23;;
70899;SDS011;67902;52.154;5.430;2024-03-08T08:52:54;31.75;;;15.63;;
70899;SDS011;67902;52.154;5.430;2024-03-08T08:55:22;27.42;;;13.90;;
70899;SDS011;67902;52.154;5.430;2024-03-08T08:57:52;30.60;;;15.00;;
70899;SDS011;67902;52.154;5.430;2024-03-08T09:00:19;26.30;;;14.45;;
70899;SDS011;67902;52.154;5.430;2024-03-08T09:02:47;28.88;;;15.02;;
70899;SDS011;67902;52.154;5.430;2024-03-08T09:05:17;29.80;;;15.65;;
70899;SDS011;67902;52.154;5.430;2024-03-08T09:07:44;29.05;;;15.35;;
70899;SDS011;67902;52.154;5.430;2024-03-08T09:10:11;31.15;;;16.13;;
70899;SDS011;67902;52.154;5.430;2024-03-08T09:12:41;34.03;;;16.20;;
70899;SDS011;67902;52.154;5.430;2024-03-08T09:15:07;27.38;;;13.77;;
70899;SDS011;67902;52.154;5.430;2024-03-08T09:17:37;28.77;;;15.60;;
70899;SDS011;67902;52.154;5.430;2024-03-08T09:20:08;26.48;;;13.63;;
70899;SDS011;67902;52.154;5.430;2024-03-08T09:22:36;29.50;;;14.90;;
70899;SDS011;67902;52.154;5.430;2024-03-08T09:25:02;30.85;;;16.02;;
70899;SDS011;67902;52.154;5.430;2024-03-08T09:27:32;29.60;;;16.13;;
70899;SDS011;67902;52.154;5.430;2024-03-08T09:29:58;29.00;;;16.10;;
70899;SDS011;67902;52.154;5.430;2024-03-08T09:32:24;28.55;;;14.18;;
70899;SDS011;67902;52.154;5.430;2024-03-08T09:34:52;27.75;;;15.05;;
70899;SDS011;67902;52.154;5.430;2024-03-08T09:37:19;28.75;;;13.98;;
70899;SDS011;67902;52.154;5.430;2024-03-08T09:39:45;27.48;;;13.85;;
70899;SDS011;67902;52.154;5.430;2024-03-08T09:42:12;30.15;;;14.63;;
70899;SDS011;67902;52.154;5.430;2024-03-08T09:44:47;29.08;;;14.55;;
70899;SDS011;67902;52.154;5.430;2024-03-08T09:47:14;27.17;;;14.13;;
70899;SDS011;67902;52.154;5.430;2024-03-08T09:49:49;26.52;;;14.00;;
70899;SDS011;67902;52.154;5.430;2024-03-08T09:52:16;28.85;;;15.20;;
70899;SDS011;67902;52.154;5.430;2024-03-08T09:54:44;26.98;;;15.30;;
70899;SDS011;67902;52.154;5.430;2024-03-08T09:57:11;29.27;;;16.15;;
70899;SDS011;67902;52.154;5.430;2024-03-08T09:59:38;24.90;;;14.18;;
70899;SDS011;67902;52.154;5.430;2024-03-08T10:02:04;28.25;;;15.60;;
70899;SDS011;67902;52.154;5.430;2024-03-08T10:04:32;29.25;;;15.65;;
70899;SDS011;67902;52.154;5.430;2024-03-08T10:11:59;25.83;;;15.35;;
70899;SDS011;67902;52.154;5.430;2024-03-08T10:14:26;26.55;;;14.07;;
70899;SDS011;67902;52.154;5.430;2024-03-08T10:16:53;28.40;;;14.93;;
70899;SDS011;67902;52.154;5.430;2024-03-08T10:19:20;28.40;;;14.82;;
70899;SDS011;67902;52.154;5.430;2024-03-08T10:21:52;24.23;;;14.05;;
70899;SDS011;67902;52.154;5.430;2024-03-08T10:24:23;26.80;;;14.15;;
70899;SDS011;67902;52.154;5.430;2024-03-08T10:26:53;25.45;;;14.65;;
70899;SDS011;67902;52.154;5.430;2024-03-08T10:29:20;24.38;;;12.90;;
70899;SDS011;67902;52.154;5.430;2024-03-08T10:31:47;24.50;;;13.73;;
70899;SDS011;67902;52.154;5.430;2024-03-08T10:34:13;27.33;;;15.07;;
70899;SDS011;67902;52.154;5.430;2024-03-08T10:36:40;24.70;;;13.63;;
70899;SDS011;67902;52.154;5.430;2024-03-08T10:39:12;24.60;;;12.35;;
70899;SDS011;67902;52.154;5.430;2024-03-08T10:41:52;25.55;;;15.35;;
70899;SDS011;67902;52.154;5.430;2024-03-08T10:44:30;28.02;;;14.60;;
70899;SDS011;67902;52.154;5.430;2024-03-08T10:47:14;24.00;;;14.35;;
70899;SDS011;67902;52.154;5.430;2024-03-08T10:49:55;26.73;;;14.90;;
70899;SDS011;67902;52.154;5.430;2024-03-08T10:52:31;25.48;;;14.07;;
70899;SDS011;67902;52.154;5.430;2024-03-08T10:54:58;26.48;;;13.63;;
70899;SDS011;67902;52.154;5.430;2024-03-08T10:57:26;26.63;;;14.52;;
70899;SDS011;67902;52.154;5.430;2024-03-08T10:59:53;28.65;;;15.07;;
70899;SDS011;67902;52.154;5.430;2024-03-08T11:02:25;24.80;;;14.75;;
70899;SDS011;67902;52.154;5.430;2024-03-08T11:04:53;30.25;;;14.75;;
70899;SDS011;67902;52.154;5.430;2024-03-08T11:07:23;25.75;;;14.20;;
70899;SDS011;67902;52.154;5.430;2024-03-08T11:09:53;23.77;;;13.02;;
70899;SDS011;67902;52.154;5.430;2024-03-08T11:12:27;25.17;;;14.23;;
70899;SDS011;67902;52.154;5.430;2024-03-08T11:14:59;25.98;;;13.10;;
70899;SDS011;67902;52.154;5.430;2024-03-08T11:19:57;26.23;;;13.68;;
70899;SDS011;67902;52.154;5.430;2024-03-08T11:25:03;23.35;;;12.68;;
70899;SDS011;67902;52.154;5.430;2024-03-08T11:27:36;26.35;;;12.93;;
70899;SDS011;67902;52.154;5.430;2024-03-08T11:30:06;23.15;;;11.60;;
70899;SDS011;67902;52.154;5.430;2024-03-08T11:32:46;23.77;;;12.07;;
70899;SDS011;67902;52.154;5.430;2024-03-08T11:35:18;25.25;;;13.68;;
70899;SDS011;67902;52.154;5.430;2024-03-08T11:37:45;23.88;;;12.63;;
70899;SDS011;67902;52.154;5.430;2024-03-08T11:40:12;22.90;;;12.70;;
70899;SDS011;67902;52.154;5.430;2024-03-08T11:42:48;25.88;;;13.98;;
70899;SDS011;67902;52.154;5.430;2024-03-08T11:45:15;24.92;;;13.02;;
70899;SDS011;67902;52.154;5.430;2024-03-08T11:47:44;21.23;;;11.38;;
70899;SDS011;67902;52.154;5.430;2024-03-08T11:50:13;26.90;;;13.20;;
70899;SDS011;67902;52.154;5.430;2024-03-08T11:52:40;29.17;;;12.60;;
70899;SDS011;67902;52.154;5.430;2024-03-08T11:55:06;24.52;;;13.18;;
70899;SDS011;67902;52.154;5.430;2024-03-08T11:57:33;25.38;;;13.90;;
70899;SDS011;67902;52.154;5.430;2024-03-08T12:00:00;23.08;;;12.70;;
70899;SDS011;67902;52.154;5.430;2024-03-08T12:02:34;21.85;;;11.70;;
70899;SDS011;67902;52.154;5.430;2024-03-08T12:05:04;22.48;;;11.75;;
70899;SDS011;67902;52.154;5.430;2024-03-08T12:07:36;23.17;;;12.77;;
70899;SDS011;67902;52.154;5.430;2024-03-08T12:10:21;26.13;;;12.88;;
70899;SDS011;67902;52.154;5.430;2024-03-08T12:12:50;23.92;;;12.63;;
70899;SDS011;67902;52.154;5.430;2024-03-08T12:15:18;21.38;;;11.77;;
70899;SDS011;67902;52.154;5.430;2024-03-08T12:17:47;24.40;;;12.48;;
70899;SDS011;67902;52.154;5.430;2024-03-08T12:20:17;24.92;;;11.82;;
70899;SDS011;67902;52.154;5.430;2024-03-08T12:22:48;19.23;;;10.82;;
70899;SDS011;67902;52.154;5.430;2024-03-08T12:25:35;22.50;;;10.27;;
70899;SDS011;67902;52.154;5.430;2024-03-08T12:28:08;21.45;;;10.80;;
70899;SDS011;67902;52.154;5.430;2024-03-08T12:30:47;20.27;;;10.43;;
70899;SDS011;67902;52.154;5.430;2024-03-08T12:33:15;23.05;;;11.98;;
70899;SDS011;67902;52.154;5.430;2024-03-08T12:35:49;17.42;;;9.00;;
70899;SDS011;67902;52.154;5.430;2024-03-08T12:38:20;20.70;;;11.82;;
70899;SDS011;67902;52.154;5.430;2024-03-08T12:41:00;20.85;;;10.88;;
70899;SDS011;67902;52.154;5.430;2024-03-08T12:43:28;20.80;;;10.85;;
70899;SDS011;67902;52.154;5.430;2024-03-08T12:45:57;18.25;;;8.95;;
70899;SDS011;67902;52.154;5.430;2024-03-08T12:48:24;17.40;;;9.65;;
70899;SDS011;67902;52.154;5.430;2024-03-08T12:50:51;20.83;;;11.20;;
70899;SDS011;67902;52.154;5.430;2024-03-08T12:55:45;20.92;;;11.18;;
70899;SDS011;67902;52.154;5.430;2024-03-08T12:58:11;18.00;;;10.23;;
70899;SDS011;67902;52.154;5.430;2024-03-08T13:00:38;24.23;;;11.57;;
70899;SDS011;67902;52.154;5.430;2024-03-08T13:03:09;24.08;;;12.40;;
70899;SDS011;67902;52.154;5.430;2024-03-08T13:05:37;23.83;;;11.77;;
70899;SDS011;67902;52.154;5.430;2024-03-08T13:08:06;21.52;;;10.68;;
70899;SDS011;67902;52.154;5.430;2024-03-08T13:10:39;21.67;;;10.60;;
70899;SDS011;67902;52.154;5.430;2024-03-08T13:13:06;23.92;;;11.88;;
70899;SDS011;67902;52.154;5.430;2024-03-08T13:15:32;22.45;;;11.20;;
70899;SDS011;67902;52.154;5.430;2024-03-08T13:18:00;21.60;;;11.82;;
70899;SDS011;67902;52.154;5.430;2024-03-08T13:20:26;25.23;;;12.30;;
70899;SDS011;67902;52.154;5.430;2024-03-08T13:23:05;22.05;;;12.10;;
70899;SDS011;67902;52.154;5.430;2024-03-08T13:25:33;23.40;;;12.93;;
70899;SDS011;67902;52.154;5.430;2024-03-08T13:27:59;26.25;;;13.55;;
70899;SDS011;67902;52.154;5.430;2024-03-08T13:30:27;24.67;;;13.38;;
70899;SDS011;67902;52.154;5.430;2024-03-08T13:32:53;23.85;;;12.38;;
70899;SDS011;67902;52.154;5.430;2024-03-08T13:35:20;21.98;;;12.40;;
70899;SDS011;67902;52.154;5.430;2024-03-08T13:37:52;23.30;;;12.20;;
70899;SDS011;67902;52.154;5.430;2024-03-08T13:40:19;22.88;;;12.63;;
70899;SDS011;67902;52.154;5.430;2024-03-08T13:45:15;20.67;;;10.90;;
70899;SDS011;67902;52.154;5.430;2024-03-08T13:47:50;23.30;;;12.75;;
70899;SDS011;67902;52.154;5.430;2024-03-08T13:50:21;22.98;;;12.70;;
70899;SDS011;67902;52.154;5.430;2024-03-08T13:55:20;23.00;;;11.93;;
70899;SDS011;67902;52.154;5.430;2024-03-08T13:57:48;20.88;;;12.02;;
70899;SDS011;67902;52.154;5.430;2024-03-08T14:00:15;21.20;;;11.77;;
70899;SDS011;67902;52.154;5.430;2024-03-08T14:02:42;23.63;;;12.77;;
70899;SDS011;67902;52.154;5.430;2024-03-08T14:05:09;23.05;;;11.77;;
70899;SDS011;67902;52.154;5.430;2024-03-08T14:07:37;21.45;;;11.90;;
70899;SDS011;67902;52.154;5.430;2024-03-08T14:10:04;21.15;;;11.02;;
70899;SDS011;67902;52.154;5.430;2024-03-08T14:12:35;22.05;;;12.55;;
70899;SDS011;67902;52.154;5.430;2024-03-08T14:15:02;20.55;;;10.93;;
70899;SDS011;67902;52.154;5.430;2024-03-08T14:17:33;23.77;;;11.07;;
70899;SDS011;67902;52.154;5.430;2024-03-08T14:20:00;24.25;;;13.35;;
70899;SDS011;67902;52.154;5.430;2024-03-08T14:22:26;26.90;;;13.98;;
70899;SDS011;67902;52.154;5.430;2024-03-08T14:24:53;24.90;;;13.70;;
70899;SDS011;67902;52.154;5.430;2024-03-08T14:27:22;24.05;;;13.00;;
70899;SDS011;67902;52.154;5.430;2024-03-08T14:32:16;22.38;;;12.38;;
70899;SDS011;67902;52.154;5.430;2024-03-08T14:34:45;21.30;;;12.02;;
70899;SDS011;67902;52.154;5.430;2024-03-08T14:37:14;20.27;;;12.00;;
70899;SDS011;67902;52.154;5.430;2024-03-08T14:39:40;24.33;;;13.07;;
70899;SDS011;67902;52.154;5.430;2024-03-08T14:42:07;23.65;;;13.02;;
70899;SDS011;67902;52.154;5.430;2024-03-08T14:44:35;21.27;;;11.55;;
70899;SDS011;67902;52.154;5.430;2024-03-08T14:47:04;20.63;;;11.63;;
70899;SDS011;67902;52.154;5.430;2024-03-08T14:49:32;22.48;;;12.40;;
70899;SDS011;67902;52.154;5.430;2024-03-08T14:52:02;26.67;;;13.88;;
70899;SDS011;67902;52.154;5.430;2024-03-08T14:54:30;21.40;;;11.88;;
70899;SDS011;67902;52.154;5.430;2024-03-08T14:56:57;20.90;;;11.88;;
70899;SDS011;67902;52.154;5.430;2024-03-08T14:59:24;23.92;;;13.02;;
70899;SDS011;67902;52.154;5.430;2024-03-08T15:01:55;20.02;;;11.07;;